Time;durP1;ratioP1;P1;durP2;ratioP2;P2;SDS_P1;SDS_P2;PMS_P1;PMS_P2;Temp;Humidity;BMP_temperature;BMP_pressure;BME280_temperature;BME280_humidity;BME280_pressure;Samples;Min_cycle;Max_cycle;Signal;HPM_P1;HPM_P2
2022/03/29 00:01:00;;;;;;;15.95;11.95;;;8.80;84.40;;;;;;2058706;28;20035;-89
2022/03/29 00:02:01;;;;;;;16.58;11.70;;;8.80;84.50;;;;;;2058338;28;20023;-89
2022/03/29 00:03:03;;;;;;;16.13;12.05;;;8.70;84.40;;;;;;2057318;28;20552;-90
2022/03/29 00:04:03;;;;;;;14.77;11.68;;;8.80;84.50;;;;;;2058458;28;20031;-89
2022/03/29 00:05:04;;;;;;;15.30;12.43;;;8.70;84.40;;;;;;2061023;28;20034;-88
2022/03/29 00:06:06;;;;;;;16.55;12.57;;;8.70;84.50;;;;;;2062500;28;20125;-89
2022/03/29 00:07:07;;;;;;;17.48;12.63;;;8.70;84.50;;;;;;2056869;28;20030;-89
2022/03/29 00:08:08;;;;;;;17.27;12.55;;;8.60;84.60;;;;;;2056870;28;20405;-89
2022/03/29 00:09:08;;;;;;;15.32;12.38;;;8.60;84.70;;;;;;2078313;28;20061;-90
2022/03/29 00:10:09;;;;;;;15.80;12.45;;;8.60;84.70;;;;;;2073566;28;20090;-89
2022/03/29 00:11:12;;;;;;;15.70;11.85;;;8.60;84.80;;;;;;2053074;28;20127;-89
2022/03/29 00:12:13;;;;;;;16.30;11.93;;;8.60;84.80;;;;;;2058323;28;20030;-89
2022/03/29 00:13:13;;;;;;;15.45;12.20;;;8.60;84.80;;;;;;2064258;28;20031;-91
2022/03/29 00:14:14;;;;;;;14.05;11.75;;;8.60;84.80;;;;;;2065153;28;20094;-89
2022/03/29 00:15:15;;;;;;;15.68;12.25;;;8.60;84.80;;;;;;2069492;28;20054;-89
2022/03/29 00:16:16;;;;;;;17.00;12.77;;;8.60;84.90;;;;;;2062476;28;20050;-89
2022/03/29 00:17:16;;;;;;;16.55;12.38;;;8.60;84.90;;;;;;2042543;28;20451;-89
2022/03/29 00:18:17;;;;;;;17.42;12.45;;;8.50;84.90;;;;;;2049451;28;20055;-88
2022/03/29 00:19:18;;;;;;;17.17;13.15;;;8.50;84.90;;;;;;2062406;28;20794;-89
2022/03/29 00:20:20;;;;;;;16.33;12.00;;;8.50;85.00;;;;;;2074172;28;20121;-90
2022/03/29 00:21:20;;;;;;;19.42;12.98;;;8.50;85.10;;;;;;2066098;28;20018;-89
2022/03/29 00:22:21;;;;;;;16.48;12.55;;;8.40;85.00;;;;;;2069558;28;20030;-90
2022/03/29 00:23:22;;;;;;;15.05;11.98;;;8.40;85.10;;;;;;2063417;28;20182;-89
2022/03/29 00:24:23;;;;;;;16.42;12.88;;;8.40;85.20;;;;;;2066621;28;20033;-89
2022/03/29 00:25:24;;;;;;;16.65;13.00;;;8.40;85.90;;;;;;2058257;28;20023;-89
2022/03/29 00:26:24;;;;;;;16.23;13.00;;;8.30;85.30;;;;;;2052000;28;20031;-89
2022/03/29 00:27:25;;;;;;;16.35;12.45;;;8.30;85.30;;;;;;2074292;28;20042;-89
2022/03/29 00:28:26;;;;;;;17.65;12.77;;;8.30;85.40;;;;;;2065643;28;20021;-89
2022/03/29 00:29:26;;;;;;;15.88;12.00;;;8.30;85.40;;;;;;2041817;29;20390;-89
2022/03/29 00:30:27;;;;;;;15.00;11.70;;;8.30;85.50;;;;;;2041274;28;20112;-89
2022/03/29 00:31:28;;;;;;;17.92;12.95;;;8.30;85.60;;;;;;2057688;28;20465;-89
2022/03/29 00:32:28;;;;;;;17.15;13.20;;;8.30;85.60;;;;;;2059274;28;20042;-89
2022/03/29 00:33:29;;;;;;;16.65;12.68;;;8.30;86.20;;;;;;2050148;28;20031;-89
2022/03/29 00:34:30;;;;;;;16.98;13.13;;;8.30;85.60;;;;;;2058038;28;20031;-89
2022/03/29 00:35:30;;;;;;;18.15;13.52;;;8.30;85.70;;;;;;2058032;28;20035;-89
2022/03/29 00:36:32;;;;;;;19.23;14.25;;;8.30;85.70;;;;;;2064894;28;20592;-89
2022/03/29 00:37:33;;;;;;;19.40;13.25;;;8.30;85.70;;;;;;2057200;28;20026;-89
2022/03/29 00:38:34;;;;;;;18.67;12.73;;;8.20;85.70;;;;;;2049262;28;20039;-89
2022/03/29 00:39:34;;;;;;;18.42;13.77;;;8.30;85.80;;;;;;2065728;28;20027;-89
2022/03/29 00:40:35;;;;;;;17.95;13.65;;;8.20;85.80;;;;;;2075336;28;20057;-89
2022/03/29 00:41:35;;;;;;;16.48;13.27;;;8.20;85.80;;;;;;2068847;28;20408;-89
2022/03/29 00:42:36;;;;;;;17.45;13.23;;;8.20;85.90;;;;;;2045910;29;20032;-90
2022/03/29 00:43:37;;;;;;;17.80;13.80;;;8.20;86.00;;;;;;2054426;28;20027;-90
2022/03/29 00:44:38;;;;;;;17.83;12.73;;;8.20;86.00;;;;;;2053953;28;20065;-89
2022/03/29 00:45:39;;;;;;;17.45;12.98;;;8.20;86.10;;;;;;2045357;28;20044;-89
2022/03/29 00:46:39;;;;;;;17.90;13.70;;;8.20;86.00;;;;;;2052990;28;20050;-89
2022/03/29 00:47:40;;;;;;;17.88;13.95;;;8.20;86.00;;;;;;2056558;28;20497;-89
2022/03/29 00:48:41;;;;;;;22.77;15.55;;;8.20;86.00;;;;;;2058141;28;20038;-89
2022/03/29 00:49:42;;;;;;;21.33;15.25;;;8.20;86.10;;;;;;2060765;28;20027;-89
2022/03/29 00:50:44;;;;;;;19.23;14.90;;;8.20;86.20;;;;;;2049292;28;20039;-89
2022/03/29 00:51:45;;;;;;;20.33;14.60;;;8.20;86.20;;;;;;2041662;28;20024;-89
2022/03/29 00:52:46;;;;;;;18.77;14.27;;;8.10;86.20;;;;;;2048951;28;20089;-90
2022/03/29 00:53:46;;;;;;;18.42;14.10;;;8.20;86.30;;;;;;2069765;28;20463;-89
2022/03/29 00:54:48;;;;;;;19.63;14.65;;;8.20;86.40;;;;;;2065763;28;20102;-89
2022/03/29 00:55:49;;;;;;;18.10;13.63;;;8.10;86.40;;;;;;2065825;28;20050;-90
2022/03/29 00:56:50;;;;;;;19.63;14.35;;;8.10;86.50;;;;;;2065639;28;20053;-89
2022/03/29 00:57:51;;;;;;;19.65;14.40;;;8.10;86.50;;;;;;2049844;29;20067;-89
2022/03/29 00:58:52;;;;;;;21.05;14.52;;;8.20;87.10;;;;;;2051419;28;20023;-89
2022/03/29 00:59:53;;;;;;;18.40;14.15;;;8.20;86.50;;;;;;2054668;28;20034;-89
2022/03/29 01:00:58;;;;;;;20.15;14.23;;;8.20;86.50;;;;;;2042266;28;20123;-89
2022/03/29 01:01:59;;;;;;;21.30;14.57;;;8.20;86.50;;;;;;2049036;28;20023;-89
2022/03/29 01:03:03;;;;;;;19.20;14.32;;;8.20;86.50;;;;;;2057799;28;20070;-89
2022/03/29 01:04:05;;;;;;;19.33;14.27;;;8.10;86.50;;;;;;2054901;28;20146;-90
2022/03/29 01:05:06;;;;;;;17.70;13.80;;;8.20;86.60;;;;;;2058446;28;20031;-89
2022/03/29 01:06:08;;;;;;;21.08;14.65;;;8.20;86.60;;;;;;2049853;28;20031;-89
2022/03/29 01:07:09;;;;;;;21.20;15.27;;;8.20;86.70;;;;;;2061610;28;20026;-89
2022/03/29 01:08:10;;;;;;;19.48;14.93;;;8.20;86.60;;;;;;2073140;28;20026;-90
2022/03/29 01:09:11;;;;;;;21.75;16.05;;;8.20;86.70;;;;;;2057426;28;20031;-89
2022/03/29 01:10:12;;;;;;;20.17;15.43;;;8.10;86.70;;;;;;2065801;28;20393;-90
2022/03/29 01:11:13;;;;;;;22.35;16.42;;;8.10;86.70;;;;;;2072942;28;20030;-89
2022/03/29 01:12:15;;;;;;;20.58;15.90;;;8.10;86.80;;;;;;2056367;28;20027;-90
2022/03/29 01:13:16;;;;;;;21.83;15.55;;;8.10;86.90;;;;;;2049396;28;20031;-90
2022/03/29 01:14:16;;;;;;;22.83;16.70;;;8.10;87.00;;;;;;2050229;28;20117;-89
2022/03/29 01:15:19;;;;;;;22.13;16.63;;;8.00;87.10;;;;;;2049753;28;20027;-89
2022/03/29 01:17:40;;;;;;;22.90;16.23;;;8.00;87.20;;;;;;2064328;28;20031;-89
2022/03/29 01:18:41;;;;;;;22.45;16.30;;;7.90;87.20;;;;;;2067817;28;20022;-89
2022/03/29 01:19:43;;;;;;;22.25;16.73;;;7.90;87.30;;;;;;2057817;28;20026;-89
2022/03/29 01:20:48;;;;;;;22.83;16.98;;;7.90;87.40;;;;;;2063828;28;20497;-89
2022/03/29 01:22:02;;;;;;;22.77;16.75;;;7.80;87.50;;;;;;2065804;28;20026;-89
2022/03/29 01:23:04;;;;;;;26.65;17.13;;;7.80;87.60;;;;;;2067732;28;20093;-89
2022/03/29 01:24:08;;;;;;;22.63;16.88;;;7.80;87.70;;;;;;2057677;28;20034;-89
2022/03/29 01:25:09;;;;;;;22.40;16.73;;;7.80;87.80;;;;;;2062330;28;20117;-89
2022/03/29 01:26:10;;;;;;;22.08;16.98;;;7.80;87.90;;;;;;2042087;28;20032;-89
2022/03/29 01:27:12;;;;;;;21.65;16.35;;;7.70;87.90;;;;;;2033811;28;20039;-89
2022/03/29 01:28:15;;;;;;;22.88;16.58;;;7.70;87.90;;;;;;2056911;28;20050;-88
2022/03/29 01:29:16;;;;;;;21.75;16.08;;;7.70;88.00;;;;;;2069792;28;20413;-89
2022/03/29 01:30:17;;;;;;;21.30;15.68;;;7.70;88.00;;;;;;2064909;28;20069;-89
2022/03/29 01:31:18;;;;;;;19.58;15.15;;;7.70;88.00;;;;;;2063586;28;20421;-89
2022/03/29 01:32:19;;;;;;;19.42;15.02;;;7.70;88.00;;;;;;2065816;28;20129;-89
2022/03/29 01:33:21;;;;;;;18.63;14.70;;;7.70;88.10;;;;;;2070190;28;20394;-89
2022/03/29 01:34:21;;;;;;;20.17;14.90;;;7.80;88.10;;;;;;2065572;28;20019;-89
2022/03/29 01:35:24;;;;;;;19.48;14.77;;;7.80;88.10;;;;;;2052900;28;20091;-88
2022/03/29 01:36:25;;;;;;;20.80;15.38;;;7.80;88.00;;;;;;2058892;28;20173;-89
2022/03/29 01:37:25;;;;;;;20.85;14.60;;;7.80;88.10;;;;;;2058413;28;20027;-89
2022/03/29 01:38:26;;;;;;;21.05;15.73;;;7.80;88.10;;;;;;2046283;28;20078;-89
2022/03/29 01:39:27;;;;;;;19.95;15.20;;;7.80;88.70;;;;;;2051060;28;20035;-89
2022/03/29 01:40:28;;;;;;;20.23;14.93;;;7.80;88.10;;;;;;2050802;28;20074;-89
2022/03/29 01:41:29;;;;;;;19.92;14.75;;;7.80;88.20;;;;;;2057604;28;20065;-89
2022/03/29 01:42:29;;;;;;;19.75;14.98;;;7.80;88.80;;;;;;2065560;28;20097;-89
2022/03/29 01:43:30;;;;;;;19.95;14.45;;;7.80;88.80;;;;;;2065965;28;20037;-89
2022/03/29 01:44:31;;;;;;;18.92;14.65;;;7.80;88.20;;;;;;2065244;28;20476;-89
2022/03/29 01:45:32;;;;;;;19.83;15.13;;;7.80;88.20;;;;;;2060627;28;20023;-88
2022/03/29 01:46:33;;;;;;;22.20;16.70;;;7.80;88.20;;;;;;2065345;28;20088;-89
2022/03/29 01:47:34;;;;;;;20.42;15.88;;;7.80;88.30;;;;;;2065589;28;20481;-89
2022/03/29 01:48:35;;;;;;;21.50;15.93;;;7.80;88.30;;;;;;2068391;28;20034;-90
2022/03/29 01:49:37;;;;;;;21.15;15.13;;;7.80;88.40;;;;;;2057201;28;20085;-89
2022/03/29 01:50:38;;;;;;;21.83;15.35;;;7.70;88.50;;;;;;2064564;28;20030;-89
2022/03/29 01:51:38;;;;;;;20.20;14.85;;;7.70;88.50;;;;;;2057469;28;20387;-89
2022/03/29 01:52:45;;;;;;;21.60;15.35;;;7.70;88.60;;;;;;2051504;28;20101;-89
2022/03/29 01:53:53;;;;;;;20.30;15.40;;;7.70;88.70;;;;;;2042730;28;20077;-89
2022/03/29 01:54:53;;;;;;;19.55;14.60;;;7.70;88.70;;;;;;2058664;28;20067;-89
2022/03/29 01:55:56;;;;;;;21.33;15.32;;;7.70;88.70;;;;;;2065384;28;20046;-89
2022/03/29 01:56:57;;;;;;;18.95;14.05;;;7.70;88.70;;;;;;2057986;28;20101;-89
2022/03/29 01:57:58;;;;;;;18.27;14.68;;;7.60;88.70;;;;;;2057644;28;20031;-89
2022/03/29 01:59:03;;;;;;;18.00;14.15;;;7.60;88.90;;;;;;2070092;28;20077;-89
2022/03/29 02:01:28;;;;;;;17.60;13.20;;;7.60;89.00;;;;;;2078046;28;21353;-90
2022/03/29 02:02:29;;;;;;;21.05;13.65;;;7.50;89.00;;;;;;2071040;28;20029;-89
2022/03/29 02:03:30;;;;;;;21.42;13.85;;;7.50;89.00;;;;;;2062078;28;20038;-89
2022/03/29 02:04:31;;;;;;;17.30;13.52;;;7.50;89.10;;;;;;2068028;28;20053;-88
2022/03/29 02:05:32;;;;;;;17.90;13.00;;;7.50;89.10;;;;;;2063436;28;20545;-88
2022/03/29 02:06:33;;;;;;;24.90;14.63;;;7.50;89.20;;;;;;2065671;28;20558;-89
2022/03/29 02:07:33;;;;;;;18.48;13.70;;;7.50;89.30;;;;;;2059365;28;20066;-89
2022/03/29 02:08:34;;;;;;;17.83;14.20;;;7.50;89.40;;;;;;2057040;28;20149;-89
2022/03/29 02:09:35;;;;;;;18.52;13.23;;;7.50;89.40;;;;;;2065273;28;20065;-89
2022/03/29 02:10:36;;;;;;;17.63;13.10;;;7.50;89.40;;;;;;2063390;28;20046;-88
2022/03/29 02:11:43;;;;;;;18.67;13.95;;;7.50;89.40;;;;;;2067489;28;20473;-89
2022/03/29 02:12:44;;;;;;;19.90;14.10;;;7.50;89.40;;;;;;2081083;28;20031;-88
2022/03/29 02:13:45;;;;;;;20.27;13.95;;;7.50;89.40;;;;;;2081209;28;20018;-88
2022/03/29 02:14:45;;;;;;;18.70;13.95;;;7.60;89.40;;;;;;2075826;28;20040;-89
2022/03/29 02:15:46;;;;;;;17.13;13.15;;;7.60;89.40;;;;;;2068058;28;20084;-89
2022/03/29 02:16:47;;;;;;;18.13;13.43;;;7.50;89.40;;;;;;2065294;28;20427;-89
2022/03/29 02:17:51;;;;;;;20.13;14.15;;;7.60;89.40;;;;;;2065331;28;20092;-89
2022/03/29 02:18:52;;;;;;;22.05;14.57;;;7.60;89.40;;;;;;2064274;28;20070;-89
2022/03/29 02:19:52;;;;;;;20.38;15.43;;;7.60;89.40;;;;;;2055951;28;20031;-90
2022/03/29 02:20:54;;;;;;;21.05;14.77;;;7.60;89.40;;;;;;2048851;28;20031;-89
2022/03/29 02:21:54;;;;;;;20.75;15.25;;;7.60;89.50;;;;;;2056855;28;20035;-88
2022/03/29 02:22:55;;;;;;;20.77;14.95;;;7.50;89.50;;;;;;2041316;28;20035;-89
2022/03/29 02:23:56;;;;;;;20.35;15.10;;;7.50;89.60;;;;;;2041185;28;20114;-89
2022/03/29 02:24:56;;;;;;;20.75;15.20;;;7.50;89.70;;;;;;2064189;28;20065;-89
2022/03/29 02:25:57;;;;;;;18.48;13.88;;;7.50;89.70;;;;;;2049279;28;20036;-89
2022/03/29 02:26:57;;;;;;;18.85;14.00;;;7.50;89.80;;;;;;2035273;29;20032;-89
2022/03/29 02:27:59;;;;;;;18.50;14.10;;;7.50;89.80;;;;;;2049299;28;20031;-90
2022/03/29 02:28:59;;;;;;;21.10;15.20;;;7.50;89.90;;;;;;2064521;28;20129;-89
2022/03/29 02:30:00;;;;;;;23.05;15.63;;;7.60;90.20;;;;;;2057030;28;20023;-89
2022/03/29 02:31:01;;;;;;;23.40;15.77;;;7.50;89.80;;;;;;2056815;28;20030;-89
2022/03/29 02:32:02;;;;;;;20.60;14.70;;;7.50;89.80;;;;;;2062845;28;20030;-89
2022/03/29 02:33:04;;;;;;;27.15;16.75;;;7.50;89.90;;;;;;2057251;28;20050;-89
2022/03/29 02:34:05;;;;;;;23.63;15.55;;;7.50;89.90;;;;;;2057350;28;20362;-89
2022/03/29 02:35:06;;;;;;;26.10;16.10;;;7.50;90.00;;;;;;2059676;28;20168;-89
2022/03/29 02:36:09;;;;;;;25.85;15.52;;;7.50;90.00;;;;;;2073269;28;20121;-89
2022/03/29 02:37:11;;;;;;;20.80;15.02;;;7.40;90.00;;;;;;2057651;28;20046;-89
2022/03/29 02:38:13;;;;;;;20.92;15.25;;;7.40;90.10;;;;;;2057282;28;20038;-89
2022/03/29 02:39:14;;;;;;;23.95;16.08;;;7.40;90.10;;;;;;2048344;28;20082;-89
2022/03/29 02:40:14;;;;;;;21.63;15.68;;;7.40;90.10;;;;;;2056653;28;20026;-89
2022/03/29 02:41:15;;;;;;;20.27;15.07;;;7.40;90.20;;;;;;2056583;28;20031;-90
2022/03/29 02:42:16;;;;;;;19.05;14.90;;;7.40;90.20;;;;;;2073269;28;20080;-89
2022/03/29 02:43:17;;;;;;;19.95;15.07;;;7.40;90.20;;;;;;2073267;28;20021;-89
2022/03/29 02:44:18;;;;;;;18.98;14.32;;;7.40;90.20;;;;;;2072455;28;20534;-89
2022/03/29 02:45:21;;;;;;;19.30;14.55;;;7.40;90.20;;;;;;2073160;28;20113;-89
2022/03/29 02:46:22;;;;;;;19.17;14.10;;;7.40;90.20;;;;;;2072736;28;20113;-89
2022/03/29 02:47:22;;;;;;;21.10;14.65;;;7.40;90.20;;;;;;2056848;28;20409;-89
2022/03/29 02:48:23;;;;;;;19.90;14.55;;;7.40;90.20;;;;;;2048038;28;20058;-89
2022/03/29 02:49:25;;;;;;;20.77;15.50;;;7.40;90.20;;;;;;2060443;28;20077;-89
2022/03/29 02:50:26;;;;;;;21.42;15.50;;;7.40;90.20;;;;;;2057158;28;20023;-90
2022/03/29 02:51:26;;;;;;;21.08;15.02;;;7.40;90.20;;;;;;2057096;28;20034;-89
2022/03/29 02:52:27;;;;;;;20.40;15.52;;;7.40;90.20;;;;;;2064851;28;20034;-89
2022/03/29 02:53:28;;;;;;;20.85;15.25;;;7.40;90.20;;;;;;2073036;28;20037;-89
2022/03/29 02:54:29;;;;;;;19.88;14.90;;;7.40;90.20;;;;;;2055966;28;20027;-89
2022/03/29 02:55:31;;;;;;;20.98;15.50;;;7.40;90.50;;;;;;2048759;28;20107;-89
2022/03/29 02:56:31;;;;;;;22.90;16.67;;;7.40;90.30;;;;;;2058421;28;20027;-89
2022/03/29 02:57:32;;;;;;;26.45;16.98;;;7.40;90.30;;;;;;2056911;28;20053;-89
2022/03/29 02:58:33;;;;;;;24.55;17.58;;;7.40;90.30;;;;;;2049192;28;20122;-89
2022/03/29 02:59:33;;;;;;;23.08;15.75;;;7.40;90.30;;;;;;2048878;28;20039;-89
2022/03/29 03:00:34;;;;;;;22.25;15.82;;;7.40;90.30;;;;;;2041240;28;20105;-90
2022/03/29 03:01:35;;;;;;;20.38;15.07;;;7.40;90.60;;;;;;2049246;28;20059;-90
2022/03/29 03:02:36;;;;;;;20.05;15.40;;;7.40;90.40;;;;;;2062804;28;20031;-90
2022/03/29 03:03:37;;;;;;;19.85;14.82;;;7.30;90.40;;;;;;2065325;28;20041;-90
2022/03/29 03:04:38;;;;;;;19.08;13.90;;;7.30;90.40;;;;;;2065273;28;20481;-89
2022/03/29 03:05:38;;;;;;;21.52;15.68;;;7.30;90.40;;;;;;2062591;28;20038;-89
2022/03/29 03:06:40;;;;;;;23.02;15.77;;;7.30;90.40;;;;;;2064111;28;20038;-89
2022/03/29 03:07:42;;;;;;;20.70;15.20;;;7.30;90.40;;;;;;2059879;28;20029;-89
2022/03/29 03:08:43;;;;;;;22.42;15.32;;;7.30;90.40;;;;;;2065049;28;20037;-89
2022/03/29 03:09:43;;;;;;;21.48;15.52;;;7.30;90.40;;;;;;2073119;28;20029;-90
2022/03/29 03:10:44;;;;;;;23.25;13.95;;;7.30;90.40;;;;;;2064641;28;20026;-89
2022/03/29 03:11:45;;;;;;;23.98;14.40;;;7.30;90.50;;;;;;2049112;29;20027;-89
2022/03/29 03:12:48;;;;;;;23.55;14.95;;;7.30;90.50;;;;;;2056732;28;20050;-89
2022/03/29 03:13:48;;;;;;;17.95;13.63;;;7.20;90.50;;;;;;2057424;28;20496;-89
2022/03/29 03:14:49;;;;;;;19.05;14.02;;;7.20;90.50;;;;;;2056955;28;20054;-89
2022/03/29 03:15:50;;;;;;;18.08;13.48;;;7.20;90.60;;;;;;2047936;28;20035;-89
2022/03/29 03:16:50;;;;;;;18.10;13.55;;;7.10;90.60;;;;;;2048565;28;20082;-90
2022/03/29 03:17:53;;;;;;;18.52;14.15;;;7.20;90.60;;;;;;2061637;28;20030;-89
2022/03/29 03:18:53;;;;;;;18.63;13.95;;;7.20;90.60;;;;;;2064937;28;20029;-89
2022/03/29 03:19:54;;;;;;;17.25;13.27;;;7.20;90.60;;;;;;2068551;28;20065;-89
2022/03/29 03:20:55;;;;;;;17.25;13.43;;;7.20;90.60;;;;;;2060020;28;20037;-89
2022/03/29 03:21:55;;;;;;;17.58;13.40;;;7.20;90.60;;;;;;2049046;28;20057;-89
2022/03/29 03:22:56;;;;;;;17.60;13.48;;;7.10;90.60;;;;;;2055997;28;20102;-89
2022/03/29 03:23:57;;;;;;;18.73;14.00;;;7.20;90.70;;;;;;2056594;28;20027;-90
2022/03/29 03:24:58;;;;;;;20.60;14.27;;;7.20;90.70;;;;;;2057135;28;20031;-90
2022/03/29 03:25:59;;;;;;;19.85;14.32;;;7.20;90.70;;;;;;2071862;28;20034;-89
2022/03/29 03:26:59;;;;;;;17.73;13.70;;;7.20;90.70;;;;;;2065391;28;20043;-89
2022/03/29 03:28:00;;;;;;;19.15;13.73;;;7.20;90.70;;;;;;2058188;28;20413;-89
2022/03/29 03:29:01;;;;;;;17.15;13.13;;;7.20;90.70;;;;;;2042108;29;20040;-89
2022/03/29 03:30:03;;;;;;;17.60;13.80;;;7.20;90.70;;;;;;2066635;28;20500;-90
2022/03/29 03:31:04;;;;;;;19.02;13.60;;;7.20;90.70;;;;;;2058839;28;20030;-89
2022/03/29 03:32:05;;;;;;;17.30;12.85;;;7.20;90.60;;;;;;2073814;28;20029;-89
2022/03/29 03:33:06;;;;;;;16.75;12.73;;;7.30;90.70;;;;;;2074714;28;20029;-89
2022/03/29 03:34:06;;;;;;;16.95;12.60;;;7.20;90.70;;;;;;2066622;28;20057;-90
2022/03/29 03:35:08;;;;;;;15.95;12.35;;;7.20;90.70;;;;;;2058498;28;20062;-89
2022/03/29 03:36:08;;;;;;;18.13;13.07;;;7.20;90.70;;;;;;2058724;28;20031;-89
2022/03/29 03:37:09;;;;;;;16.85;12.35;;;7.20;90.70;;;;;;2056531;28;20030;-90
2022/03/29 03:38:10;;;;;;;18.83;12.85;;;7.20;90.70;;;;;;2066339;28;20044;-89
2022/03/29 03:39:10;;;;;;;18.75;12.90;;;7.20;90.70;;;;;;2064828;28;20031;-89
2022/03/29 03:40:12;;;;;;;18.70;12.20;;;7.20;90.70;;;;;;2049351;28;20082;-89
2022/03/29 03:41:12;;;;;;;18.38;13.15;;;7.20;90.70;;;;;;2050432;28;20035;-89
2022/03/29 03:42:13;;;;;;;19.02;13.00;;;7.30;90.70;;;;;;2046382;28;20039;-90
2022/03/29 03:43:14;;;;;;;21.75;13.05;;;7.20;90.70;;;;;;2058597;28;20098;-90
2022/03/29 03:44:15;;;;;;;27.42;14.70;;;7.30;90.80;;;;;;2073458;28;20023;-89
2022/03/29 03:45:15;;;;;;;18.73;13.98;;;7.20;90.70;;;;;;2067233;28;20030;-89
2022/03/29 03:46:16;;;;;;;19.88;13.65;;;7.20;90.70;;;;;;2058563;28;20023;-90
2022/03/29 03:47:17;;;;;;;18.90;13.80;;;7.20;90.70;;;;;;2050518;28;20065;-90
2022/03/29 03:48:17;;;;;;;16.95;12.05;;;7.20;90.80;;;;;;2058116;28;20119;-90
2022/03/29 03:49:18;;;;;;;19.00;12.98;;;7.20;90.80;;;;;;2051047;28;20106;-90
2022/03/29 03:50:19;;;;;;;18.33;12.57;;;7.10;90.80;;;;;;2072087;28;20010;-90
2022/03/29 03:51:20;;;;;;;20.25;13.02;;;7.20;90.90;;;;;;2064775;28;20074;-88
2022/03/29 03:52:20;;;;;;;17.00;12.48;;;7.10;90.80;;;;;;2071518;28;20066;-89
2022/03/29 03:53:21;;;;;;;16.40;12.15;;;7.10;90.80;;;;;;2075225;28;20030;-89
2022/03/29 03:54:22;;;;;;;17.90;13.13;;;7.10;90.80;;;;;;2075561;28;20519;-90
2022/03/29 03:55:23;;;;;;;14.90;11.40;;;7.10;90.90;;;;;;2082588;28;20030;-89
2022/03/29 03:56:23;;;;;;;17.35;12.52;;;7.10;90.90;;;;;;2082158;28;20054;-88
2022/03/29 03:57:24;;;;;;;18.05;13.30;;;7.10;90.90;;;;;;2065525;28;20397;-89
2022/03/29 03:58:25;;;;;;;17.15;12.30;;;7.10;90.90;;;;;;2058190;28;20105;-90
2022/03/29 03:59:25;;;;;;;16.40;11.73;;;7.10;90.90;;;;;;2073764;28;20040;-89
2022/03/29 04:00:26;;;;;;;16.80;12.02;;;7.10;90.90;;;;;;2066657;28;20031;-90
2022/03/29 04:01:27;;;;;;;19.73;13.30;;;7.10;90.90;;;;;;2065851;28;20058;-90
2022/03/29 04:02:27;;;;;;;23.77;13.68;;;7.10;90.90;;;;;;2075020;28;20473;-89
2022/03/29 04:03:28;;;;;;;17.45;12.73;;;7.10;90.90;;;;;;2069714;28;20061;-89
2022/03/29 04:04:29;;;;;;;17.30;13.40;;;7.10;91.20;;;;;;2066739;28;20453;-89
2022/03/29 04:05:31;;;;;;;17.95;13.38;;;7.10;90.90;;;;;;2082362;28;20568;-90
2022/03/29 04:06:32;;;;;;;17.80;12.88;;;7.00;90.90;;;;;;2066035;28;20493;-89
2022/03/29 04:07:32;;;;;;;16.98;12.55;;;7.00;91.00;;;;;;2042566;28;20035;-89
2022/03/29 04:08:33;;;;;;;18.98;13.10;;;7.10;91.00;;;;;;2041286;29;20051;-90
2022/03/29 04:09:35;;;;;;;17.05;12.70;;;7.00;91.00;;;;;;2066153;28;20412;-89
2022/03/29 04:10:36;;;;;;;17.52;13.18;;;7.10;91.10;;;;;;2066197;28;20027;-89
2022/03/29 04:11:36;;;;;;;17.23;12.93;;;7.00;91.00;;;;;;2058390;28;20110;-90
2022/03/29 04:12:37;;;;;;;17.20;12.85;;;7.00;91.00;;;;;;2059525;28;20027;-89
2022/03/29 04:13:38;;;;;;;18.48;11.98;;;7.00;91.00;;;;;;2058416;28;20058;-90
2022/03/29 04:14:38;;;;;;;15.88;11.68;;;7.00;91.10;;;;;;2066277;28;20033;-90
2022/03/29 04:15:39;;;;;;;16.60;11.88;;;7.00;91.10;;;;;;2074208;28;20022;-89
2022/03/29 04:16:40;;;;;;;16.33;12.07;;;7.00;91.10;;;;;;2066938;28;20072;-88
2022/03/29 04:17:41;;;;;;;16.58;11.70;;;7.00;91.10;;;;;;2066090;28;20109;-89
2022/03/29 04:18:42;;;;;;;17.15;12.35;;;7.10;91.10;;;;;;2057052;28;20027;-89
2022/03/29 04:19:42;;;;;;;21.92;12.18;;;7.10;91.10;;;;;;2035482;28;20122;-89
2022/03/29 04:20:43;;;;;;;16.88;12.20;;;7.10;91.10;;;;;;2050270;28;20032;-89
2022/03/29 04:21:44;;;;;;;19.00;12.93;;;7.10;91.10;;;;;;2064050;28;20014;-89
2022/03/29 04:22:44;;;;;;;17.10;12.13;;;7.10;91.30;;;;;;2050112;28;20031;-89
2022/03/29 04:23:45;;;;;;;16.83;12.30;;;7.10;91.10;;;;;;2058178;28;20036;-89
2022/03/29 04:24:46;;;;;;;18.60;12.95;;;7.10;91.10;;;;;;2066085;28;20034;-90
2022/03/29 04:25:47;;;;;;;17.08;12.50;;;7.10;91.10;;;;;;2074305;28;20037;-89
2022/03/29 04:26:48;;;;;;;19.35;12.60;;;7.10;91.10;;;;;;2074786;28;20508;-90
2022/03/29 04:27:49;;;;;;;18.55;12.23;;;7.10;91.10;;;;;;2073620;28;20045;-89
2022/03/29 04:28:49;;;;;;;20.20;12.52;;;7.10;91.10;;;;;;2073970;28;20053;-89
2022/03/29 04:29:50;;;;;;;16.85;11.65;;;7.10;91.10;;;;;;2064003;28;20026;-89
2022/03/29 04:30:55;;;;;;;16.75;12.40;;;7.10;91.10;;;;;;2055164;28;20058;-89
2022/03/29 04:31:55;;;;;;;17.02;11.60;;;7.10;91.10;;;;;;2059334;28;20038;-89
2022/03/29 04:32:56;;;;;;;17.23;12.27;;;7.10;91.20;;;;;;2066009;28;20022;-90
2022/03/29 04:34:01;;;;;;;17.10;11.88;;;7.10;91.20;;;;;;2057994;28;20031;-89
2022/03/29 04:35:02;;;;;;;15.07;11.45;;;7.10;91.20;;;;;;2058175;28;20035;-90
2022/03/29 04:36:04;;;;;;;15.60;11.48;;;7.10;91.10;;;;;;2050670;28;20111;-89
2022/03/29 04:37:04;;;;;;;15.50;11.38;;;7.10;91.10;;;;;;2061177;28;20038;-89
2022/03/29 04:38:05;;;;;;;16.95;12.30;;;7.10;91.10;;;;;;2058607;28;20536;-89
2022/03/29 04:39:06;;;;;;;17.90;12.38;;;7.10;91.10;;;;;;2051849;28;20031;-89
2022/03/29 04:40:09;;;;;;;16.92;12.05;;;7.10;91.10;;;;;;2076794;28;20045;-90
2022/03/29 04:41:10;;;;;;;16.10;11.98;;;7.20;91.10;;;;;;2061315;28;20045;-89
2022/03/29 04:42:11;;;;;;;16.05;12.60;;;7.20;91.10;;;;;;2070780;28;20026;-89
2022/03/29 04:43:12;;;;;;;17.90;12.95;;;7.20;91.10;;;;;;2078901;28;20069;-90
2022/03/29 04:44:12;;;;;;;16.50;12.05;;;7.20;91.10;;;;;;2077124;28;20022;-89
2022/03/29 04:45:14;;;;;;;18.52;13.30;;;7.20;91.10;;;;;;2065951;28;20022;-89
2022/03/29 04:46:15;;;;;;;20.85;13.90;;;7.20;91.10;;;;;;2057503;28;20086;-90
2022/03/29 04:47:15;;;;;;;19.13;12.60;;;7.20;91.10;;;;;;2058228;28;20121;-90
2022/03/29 04:48:16;;;;;;;18.98;13.27;;;7.20;91.10;;;;;;2056266;28;20469;-89
2022/03/29 04:49:17;;;;;;;17.83;13.02;;;7.20;91.10;;;;;;2073372;28;20026;-89
2022/03/29 04:50:17;;;;;;;17.45;12.90;;;7.20;91.20;;;;;;2060826;28;20098;-89
2022/03/29 04:51:19;;;;;;;20.67;13.15;;;7.20;91.20;;;;;;2054672;28;20030;-90
2022/03/29 04:52:19;;;;;;;17.65;12.77;;;7.20;91.20;;;;;;2058427;28;20023;-89
2022/03/29 04:53:20;;;;;;;16.95;12.35;;;7.20;91.20;;;;;;2057667;28;20081;-89
2022/03/29 04:54:21;;;;;;;18.80;12.60;;;7.20;91.20;;;;;;2057820;28;20504;-89
2022/03/29 04:55:21;;;;;;;18.30;12.73;;;7.20;91.20;;;;;;2073766;28;20081;-89
2022/03/29 04:56:22;;;;;;;17.15;12.45;;;7.20;91.50;;;;;;2074199;28;20033;-89
2022/03/29 04:57:23;;;;;;;19.10;13.45;;;7.20;91.20;;;;;;2057880;28;20027;-89
2022/03/29 04:58:24;;;;;;;16.92;12.57;;;7.20;91.20;;;;;;2057356;28;20046;-91
2022/03/29 04:59:25;;;;;;;18.02;12.88;;;7.20;91.20;;;;;;2058181;28;20632;-88
2022/03/29 05:00:26;;;;;;;18.55;13.10;;;7.20;91.30;;;;;;2039482;29;20043;-89
2022/03/29 05:01:27;;;;;;;17.60;12.45;;;7.20;91.20;;;;;;2051058;28;20031;-89
2022/03/29 05:02:28;;;;;;;20.02;12.95;;;7.30;91.50;;;;;;2049782;28;20037;-89
2022/03/29 05:03:28;;;;;;;21.65;14.20;;;7.20;91.20;;;;;;2057561;28;20117;-89
2022/03/29 05:04:29;;;;;;;18.77;12.80;;;7.20;91.20;;;;;;2065889;28;20035;-91
2022/03/29 05:05:30;;;;;;;21.08;13.68;;;7.20;91.20;;;;;;2074252;28;20061;-89
2022/03/29 05:06:30;;;;;;;19.42;13.68;;;7.20;91.30;;;;;;2076610;28;20029;-89
2022/03/29 05:07:31;;;;;;;21.10;13.73;;;7.20;91.30;;;;;;2074095;28;20499;-89
2022/03/29 05:08:32;;;;;;;18.40;13.18;;;7.20;91.30;;;;;;2056652;28;20023;-89
2022/03/29 05:09:32;;;;;;;19.00;12.93;;;7.10;91.30;;;;;;2053697;28;20608;-88
2022/03/29 05:10:33;;;;;;;18.02;12.85;;;7.10;91.60;;;;;;2064087;28;20509;-88
2022/03/29 05:11:34;;;;;;;19.20;13.27;;;7.20;91.40;;;;;;2064684;28;20108;-88
2022/03/29 05:12:43;;;;;;;18.75;13.10;;;7.20;91.40;;;;;;2065199;28;20126;-89
2022/03/29 05:13:43;;;;;;;19.33;13.82;;;7.20;91.40;;;;;;2066872;28;20039;-89
2022/03/29 05:14:44;;;;;;;18.65;12.82;;;7.20;91.40;;;;;;2073805;28;20022;-89
2022/03/29 05:15:45;;;;;;;20.05;13.57;;;7.20;91.40;;;;;;2065614;28;20026;-89
2022/03/29 05:16:45;;;;;;;18.27;12.80;;;7.10;91.40;;;;;;2056968;28;20562;-89